sensor_id;sensor_type;location;lat;lon;timestamp;P1;P2;P0
44312;PMS5003;38833;51.142;-0.974;2023-08-12T00:00:46;6;6;
44312;PMS5003;38833;51.142;-0.974;2023-08-12T00:03:20;9;9;
44312;PMS5003;38833;51.142;-0.974;2023-08-12T00:05:53;13;13;
44312;PMS5003;38833;51.142;-0.974;2023-08-12T00:08:26;13;13;
44312;PMS5003;38833;51.142;-0.974;2023-08-12T00:11:00;11;11;
44312;PMS5003;38833;51.142;-0.974;2023-08-12T00:13:33;10;10;
44312;PMS5003;38833;51.142;-0.974;2023-08-12T00:16:07;8;8;
44312;PMS5003;38833;51.142;-0.974;2023-08-12T00:18:40;7;7;
44312;PMS5003;38833;51.142;-0.974;2023-08-12T00:21:13;11;10;
44312;PMS5003;38833;51.142;-0.974;2023-08-12T00:23:47;9;9;
44312;PMS5003;38833;51.142;-0.974;2023-08-12T00:26:20;9;9;
44312;PMS5003;38833;51.142;-0.974;2023-08-12T00:28:54;7;7;
44312;PMS5003;38833;51.142;-0.974;2023-08-12T00:31:27;7;7;
44312;PMS5003;38833;51.142;-0.974;2023-08-12T00:34:00;6;6;
44312;PMS5003;38833;51.142;-0.974;2023-08-12T00:36:34;6;6;
44312;PMS5003;38833;51.142;-0.974;2023-08-12T00:39:07;6;6;
44312;PMS5003;38833;51.142;-0.974;2023-08-12T00:41:41;4;4;
44312;PMS5003;38833;51.142;-0.974;2023-08-12T00:44:14;4;4;
44312;PMS5003;38833;51.142;-0.974;2023-08-12T00:46:48;5;5;
44312;PMS5003;38833;51.142;-0.974;2023-08-12T00:49:22;5;5;
44312;PMS5003;38833;51.142;-0.974;2023-08-12T00:51:56;6;6;
44312;PMS5003;38833;51.142;-0.974;2023-08-12T00:54:29;6;6;
44312;PMS5003;38833;51.142;-0.974;2023-08-12T00:57:03;7;6;
44312;PMS5003;38833;51.142;-0.974;2023-08-12T00:59:38;6;5;
44312;PMS5003;38833;51.142;-0.974;2023-08-12T01:02:14;5;5;
44312;PMS5003;38833;51.142;-0.974;2023-08-12T01:04:47;6;6;
44312;PMS5003;38833;51.142;-0.974;2023-08-12T01:07:21;5;5;
44312;PMS5003;38833;51.142;-0.974;2023-08-12T01:09:54;6;6;
44312;PMS5003;38833;51.142;-0.974;2023-08-12T01:12:28;7;7;
44312;PMS5003;38833;51.142;-0.974;2023-08-12T01:15:07;6;6;
44312;PMS5003;38833;51.142;-0.974;2023-08-12T01:17:44;7;7;
44312;PMS5003;38833;51.142;-0.974;2023-08-12T01:20:19;6;6;
44312;PMS5003;38833;51.142;-0.974;2023-08-12T01:22:56;7;7;
44312;PMS5003;38833;51.142;-0.974;2023-08-12T01:25:34;8;8;
44312;PMS5003;38833;51.142;-0.974;2023-08-12T01:28:07;9;9;
44312;PMS5003;38833;51.142;-0.974;2023-08-12T01:30:43;8;8;
44312;PMS5003;38833;51.142;-0.974;2023-08-12T01:33:27;9;9;
44312;PMS5003;38833;51.142;-0.974;2023-08-12T01:36:08;10;10;
44312;PMS5003;38833;51.142;-0.974;2023-08-12T01:38:45;7;7;
44312;PMS5003;38833;51.142;-0.974;2023-08-12T01:41:22;6;6;
44312;PMS5003;38833;51.142;-0.974;2023-08-12T01:43:56;6;6;
44312;PMS5003;38833;51.142;-0.974;2023-08-12T01:46:29;6;6;
44312;PMS5003;38833;51.142;-0.974;2023-08-12T01:49:04;6;6;
44312;PMS5003;38833;51.142;-0.974;2023-08-12T01:51:37;5;4;
44312;PMS5003;38833;51.142;-0.974;2023-08-12T01:54:11;4;4;
44312;PMS5003;38833;51.142;-0.974;2023-08-12T01:56:44;4;4;
44312;PMS5003;38833;51.142;-0.974;2023-08-12T01:59:17;5;5;
44312;PMS5003;38833;51.142;-0.974;2023-08-12T02:01:51;4;4;
44312;PMS5003;38833;51.142;-0.974;2023-08-12T02:04:25;4;4;
44312;PMS5003;38833;51.142;-0.974;2023-08-12T02:06:59;3;3;
44312;PMS5003;38833;51.142;-0.974;2023-08-12T02:09:32;4;3;
44312;PMS5003;38833;51.142;-0.974;2023-08-12T02:12:06;3;3;
44312;PMS5003;38833;51.142;-0.974;2023-08-12T02:14:40;4;4;
44312;PMS5003;38833;51.142;-0.974;2023-08-12T02:17:13;4;4;
44312;PMS5003;38833;51.142;-0.974;2023-08-12T02:19:46;3;3;
44312;PMS5003;38833;51.142;-0.974;2023-08-12T02:22:21;2;2;
44312;PMS5003;38833;51.142;-0.974;2023-08-12T02:24:55;3;3;
44312;PMS5003;38833;51.142;-0.974;2023-08-12T02:27:28;3;3;
44312;PMS5003;38833;51.142;-0.974;2023-08-12T02:30:02;5;3;
44312;PMS5003;38833;51.142;-0.974;2023-08-12T02:32:36;2;2;
44312;PMS5003;38833;51.142;-0.974;2023-08-12T02:35:10;5;3;
44312;PMS5003;38833;51.142;-0.974;2023-08-12T02:37:43;4;4;
44312;PMS5003;38833;51.142;-0.974;2023-08-12T02:40:17;4;4;
44312;PMS5003;38833;51.142;-0.974;2023-08-12T02:42:52;4;4;
44312;PMS5003;38833;51.142;-0.974;2023-08-12T02:45:25;2;2;
44312;PMS5003;38833;51.142;-0.974;2023-08-12T02:47:59;3;3;
44312;PMS5003;38833;51.142;-0.974;2023-08-12T02:50:32;3;3;
44312;PMS5003;38833;51.142;-0.974;2023-08-12T02:53:06;3;3;
44312;PMS5003;38833;51.142;-0.974;2023-08-12T02:55:41;3;3;
44312;PMS5003;38833;51.142;-0.974;2023-08-12T02:58:14;3;2;
44312;PMS5003;38833;51.142;-0.974;2023-08-12T03:00:47;4;4;
44312;PMS5003;38833;51.142;-0.974;2023-08-12T03:03:21;4;4;
44312;PMS5003;38833;51.142;-0.974;2023-08-12T03:05:54;5;4;
44312;PMS5003;38833;51.142;-0.974;2023-08-12T03:08:27;3;3;
44312;PMS5003;38833;51.142;-0.974;2023-08-12T03:11:01;2;2;
44312;PMS5003;38833;51.142;-0.974;2023-08-12T03:13:35;3;3;
44312;PMS5003;38833;51.142;-0.974;2023-08-12T03:16:10;2;2;
44312;PMS5003;38833;51.142;-0.974;2023-08-12T03:18:44;4;4;
44312;PMS5003;38833;51.142;-0.974;2023-08-12T03:21:18;3;3;
44312;PMS5003;38833;51.142;-0.974;2023-08-12T03:23:51;4;4;
44312;PMS5003;38833;51.142;-0.974;2023-08-12T03:26:24;5;5;
44312;PMS5003;38833;51.142;-0.974;2023-08-12T03:28:58;3;3;
44312;PMS5003;38833;51.142;-0.974;2023-08-12T03:31:31;2;2;
44312;PMS5003;38833;51.142;-0.974;2023-08-12T03:34:04;2;2;
44312;PMS5003;38833;51.142;-0.974;2023-08-12T03:36:38;4;4;
44312;PMS5003;38833;51.142;-0.974;2023-08-12T03:39:11;3;3;
44312;PMS5003;38833;51.142;-0.974;2023-08-12T03:41:44;3;3;
44312;PMS5003;38833;51.142;-0.974;2023-08-12T03:44:18;3;3;
44312;PMS5003;38833;51.142;-0.974;2023-08-12T03:46:51;3;3;
44312;PMS5003;38833;51.142;-0.974;2023-08-12T03:49:25;4;3;
44312;PMS5003;38833;51.142;-0.974;2023-08-12T03:51:58;2;1;
44312;PMS5003;38833;51.142;-0.974;2023-08-12T03:54:32;3;3;
44312;PMS5003;38833;51.142;-0.974;2023-08-12T03:57:05;5;3;
44312;PMS5003;38833;51.142;-0.974;2023-08-12T03:59:38;3;3;
44312;PMS5003;38833;51.142;-0.974;2023-08-12T04:02:12;4;4;
44312;PMS5003;38833;51.142;-0.974;2023-08-12T04:04:45;3;3;
44312;PMS5003;38833;51.142;-0.974;2023-08-12T04:07:19;2;2;
44312;PMS5003;38833;51.142;-0.974;2023-08-12T04:09:52;3;3;
44312;PMS5003;38833;51.142;-0.974;2023-08-12T04:12:25;3;3;
44312;PMS5003;38833;51.142;-0.974;2023-08-12T04:14:59;3;3;
44312;PMS5003;38833;51.142;-0.974;2023-08-12T04:17:32;3;3;
44312;PMS5003;38833;51.142;-0.974;2023-08-12T04:20:06;3;3;
44312;PMS5003;38833;51.142;-0.974;2023-08-12T04:22:40;3;3;
44312;PMS5003;38833;51.142;-0.974;2023-08-12T04:25:14;4;4;
44312;PMS5003;38833;51.142;-0.974;2023-08-12T04:27:47;3;3;
44312;PMS5003;38833;51.142;-0.974;2023-08-12T04:30:21;3;3;
44312;PMS5003;38833;51.142;-0.974;2023-08-12T04:32:54;3;3;
44312;PMS5003;38833;51.142;-0.974;2023-08-12T04:35:30;4;4;
44312;PMS5003;38833;51.142;-0.974;2023-08-12T04:38:04;5;4;
44312;PMS5003;38833;51.142;-0.974;2023-08-12T04:40:38;4;4;
44312;PMS5003;38833;51.142;-0.974;2023-08-12T04:43:12;3;3;
44312;PMS5003;38833;51.142;-0.974;2023-08-12T04:45:45;4;4;
44312;PMS5003;38833;51.142;-0.974;2023-08-12T04:48:19;4;4;
44312;PMS5003;38833;51.142;-0.974;2023-08-12T04:50:52;2;2;
44312;PMS5003;38833;51.142;-0.974;2023-08-12T04:53:26;4;4;
44312;PMS5003;38833;51.142;-0.974;2023-08-12T04:55:59;4;4;
44312;PMS5003;38833;51.142;-0.974;2023-08-12T04:58:33;4;4;
44312;PMS5003;38833;51.142;-0.974;2023-08-12T05:01:07;5;5;
44312;PMS5003;38833;51.142;-0.974;2023-08-12T05:03:40;4;4;
44312;PMS5003;38833;51.142;-0.974;2023-08-12T05:06:14;4;4;
44312;PMS5003;38833;51.142;-0.974;2023-08-12T05:08:47;4;4;
44312;PMS5003;38833;51.142;-0.974;2023-08-12T05:11:20;5;5;
44312;PMS5003;38833;51.142;-0.974;2023-08-12T05:13:54;4;4;
44312;PMS5003;38833;51.142;-0.974;2023-08-12T05:16:27;5;5;
44312;PMS5003;38833;51.142;-0.974;2023-08-12T05:19:01;4;4;
44312;PMS5003;38833;51.142;-0.974;2023-08-12T05:21:34;4;4;
44312;PMS5003;38833;51.142;-0.974;2023-08-12T05:24:08;3;3;
44312;PMS5003;38833;51.142;-0.974;2023-08-12T05:26:42;5;5;
44312;PMS5003;38833;51.142;-0.974;2023-08-12T05:29:15;4;4;
44312;PMS5003;38833;51.142;-0.974;2023-08-12T05:31:49;4;4;
44312;PMS5003;38833;51.142;-0.974;2023-08-12T05:34:22;3;3;
44312;PMS5003;38833;51.142;-0.974;2023-08-12T05:36:55;3;3;
44312;PMS5003;38833;51.142;-0.974;2023-08-12T05:39:29;4;4;
44312;PMS5003;38833;51.142;-0.974;2023-08-12T05:42:02;4;4;
44312;PMS5003;38833;51.142;-0.974;2023-08-12T05:44:36;3;3;
44312;PMS5003;38833;51.142;-0.974;2023-08-12T05:47:09;4;4;
44312;PMS5003;38833;51.142;-0.974;2023-08-12T05:49:43;3;3;
44312;PMS5003;38833;51.142;-0.974;2023-08-12T05:52:16;3;3;
44312;PMS5003;38833;51.142;-0.974;2023-08-12T05:54:50;3;3;
44312;PMS5003;38833;51.142;-0.974;2023-08-12T05:57:23;2;2;
44312;PMS5003;38833;51.142;-0.974;2023-08-12T05:59:56;5;5;
44312;PMS5003;38833;51.142;-0.974;2023-08-12T06:02:30;4;4;
44312;PMS5003;38833;51.142;-0.974;2023-08-12T06:05:04;4;4;
44312;PMS5003;38833;51.142;-0.974;2023-08-12T06:07:38;4;4;
44312;PMS5003;38833;51.142;-0.974;2023-08-12T06:10:11;5;5;
44312;PMS5003;38833;51.142;-0.974;2023-08-12T06:12:45;5;5;
44312;PMS5003;38833;51.142;-0.974;2023-08-12T06:15:18;4;4;
44312;PMS5003;38833;51.142;-0.974;2023-08-12T06:17:52;4;4;
44312;PMS5003;38833;51.142;-0.974;2023-08-12T06:20:25;4;4;
44312;PMS5003;38833;51.142;-0.974;2023-08-12T06:22:58;7;5;
44312;PMS5003;38833;51.142;-0.974;2023-08-12T06:25:32;4;4;
44312;PMS5003;38833;51.142;-0.974;2023-08-12T06:28:05;4;4;
44312;PMS5003;38833;51.142;-0.974;2023-08-12T06:30:38;5;5;
44312;PMS5003;38833;51.142;-0.974;2023-08-12T06:33:12;5;5;
44312;PMS5003;38833;51.142;-0.974;2023-08-12T06:35:45;4;4;
44312;PMS5003;38833;51.142;-0.974;2023-08-12T06:38:19;5;5;
44312;PMS5003;38833;51.142;-0.974;2023-08-12T06:40:52;4;4;
44312;PMS5003;38833;51.142;-0.974;2023-08-12T06:43:27;5;5;
44312;PMS5003;38833;51.142;-0.974;2023-08-12T06:46:01;4;4;
44312;PMS5003;38833;51.142;-0.974;2023-08-12T06:48:34;5;5;
44312;PMS5003;38833;51.142;-0.974;2023-08-12T06:51:07;5;5;
44312;PMS5003;38833;51.142;-0.974;2023-08-12T06:53:41;4;4;
44312;PMS5003;38833;51.142;-0.974;2023-08-12T06:56:15;5;5;
44312;PMS5003;38833;51.142;-0.974;2023-08-12T06:58:48;7;6;
44312;PMS5003;38833;51.142;-0.974;2023-08-12T07:01:22;5;5;
44312;PMS5003;38833;51.142;-0.974;2023-08-12T07:03:55;4;4;
44312;PMS5003;38833;51.142;-0.974;2023-08-12T07:06:29;5;5;
44312;PMS5003;38833;51.142;-0.974;2023-08-12T07:09:02;3;3;
44312;PMS5003;38833;51.142;-0.974;2023-08-12T07:11:36;5;5;
44312;PMS5003;38833;51.142;-0.974;2023-08-12T07:14:09;5;5;
44312;PMS5003;38833;51.142;-0.974;2023-08-12T07:16:42;4;4;
44312;PMS5003;38833;51.142;-0.974;2023-08-12T07:19:16;5;5;
44312;PMS5003;38833;51.142;-0.974;2023-08-12T07:21:49;6;6;
44312;PMS5003;38833;51.142;-0.974;2023-08-12T07:24:22;6;6;
44312;PMS5003;38833;51.142;-0.974;2023-08-12T07:26:56;5;5;
44312;PMS5003;38833;51.142;-0.974;2023-08-12T07:29:29;6;6;
44312;PMS5003;38833;51.142;-0.974;2023-08-12T07:32:03;4;4;
44312;PMS5003;38833;51.142;-0.974;2023-08-12T07:34:37;5;5;
44312;PMS5003;38833;51.142;-0.974;2023-08-12T07:37:10;4;4;
44312;PMS5003;38833;51.142;-0.974;2023-08-12T07:39:44;4;4;
44312;PMS5003;38833;51.142;-0.974;2023-08-12T07:42:17;4;4;
44312;PMS5003;38833;51.142;-0.974;2023-08-12T07:44:51;4;4;
44312;PMS5003;38833;51.142;-0.974;2023-08-12T07:47:24;4;4;
44312;PMS5003;38833;51.142;-0.974;2023-08-12T07:49:57;3;3;
44312;PMS5003;38833;51.142;-0.974;2023-08-12T07:52:31;3;3;
44312;PMS5003;38833;51.142;-0.974;2023-08-12T07:55:04;3;3;
44312;PMS5003;38833;51.142;-0.974;2023-08-12T07:57:38;5;4;
44312;PMS5003;38833;51.142;-0.974;2023-08-12T08:00:12;4;4;
44312;PMS5003;38833;51.142;-0.974;2023-08-12T08:02:46;4;4;
44312;PMS5003;38833;51.142;-0.974;2023-08-12T08:05:19;5;5;
44312;PMS5003;38833;51.142;-0.974;2023-08-12T08:07:53;3;3;
44312;PMS5003;38833;51.142;-0.974;2023-08-12T08:10:26;5;5;
44312;PMS5003;38833;51.142;-0.974;2023-08-12T08:13:00;4;4;
44312;PMS5003;38833;51.142;-0.974;2023-08-12T08:15:33;4;4;
44312;PMS5003;38833;51.142;-0.974;2023-08-12T08:18:06;5;5;
44312;PMS5003;38833;51.142;-0.974;2023-08-12T08:20:41;3;3;
44312;PMS5003;38833;51.142;-0.974;2023-08-12T08:23:15;4;4;
44312;PMS5003;38833;51.142;-0.974;2023-08-12T08:25:48;4;4;
44312;PMS5003;38833;51.142;-0.974;2023-08-12T08:28:21;5;5;
44312;PMS5003;38833;51.142;-0.974;2023-08-12T08:30:55;4;4;
44312;PMS5003;38833;51.142;-0.974;2023-08-12T08:33:28;4;4;
44312;PMS5003;38833;51.142;-0.974;2023-08-12T08:36:02;4;4;
44312;PMS5003;38833;51.142;-0.974;2023-08-12T08:38:36;4;4;
44312;PMS5003;38833;51.142;-0.974;2023-08-12T08:41:09;5;5;
44312;PMS5003;38833;51.142;-0.974;2023-08-12T08:43:43;4;4;
44312;PMS5003;38833;51.142;-0.974;2023-08-12T08:46:20;5;5;
44312;PMS5003;38833;51.142;-0.974;2023-08-12T08:48:54;5;5;
44312;PMS5003;38833;51.142;-0.974;2023-08-12T08:51:31;3;3;
44312;PMS5003;38833;51.142;-0.974;2023-08-12T08:54:05;6;5;
44312;PMS5003;38833;51.142;-0.974;2023-08-12T08:56:39;3;3;
44312;PMS5003;38833;51.142;-0.974;2023-08-12T08:59:12;4;4;
44312;PMS5003;38833;51.142;-0.974;2023-08-12T09:01:46;4;4;
44312;PMS5003;38833;51.142;-0.974;2023-08-12T09:04:21;5;4;
44312;PMS5003;38833;51.142;-0.974;2023-08-12T09:06:55;4;4;
44312;PMS5003;38833;51.142;-0.974;2023-08-12T09:09:30;4;4;
44312;PMS5003;38833;51.142;-0.974;2023-08-12T09:12:06;4;4;
44312;PMS5003;38833;51.142;-0.974;2023-08-12T09:14:40;5;5;
44312;PMS5003;38833;51.142;-0.974;2023-08-12T09:17:14;4;4;
44312;PMS5003;38833;51.142;-0.974;2023-08-12T09:19:48;4;4;
44312;PMS5003;38833;51.142;-0.974;2023-08-12T09:22:24;3;3;
44312;PMS5003;38833;51.142;-0.974;2023-08-12T09:24:58;5;5;
44312;PMS5003;38833;51.142;-0.974;2023-08-12T09:27:32;5;5;
44312;PMS5003;38833;51.142;-0.974;2023-08-12T09:30:06;3;3;
44312;PMS5003;38833;51.142;-0.974;2023-08-12T09:32:40;5;5;
44312;PMS5003;38833;51.142;-0.974;2023-08-12T09:35:15;3;3;
44312;PMS5003;38833;51.142;-0.974;2023-08-12T09:37:49;4;4;
44312;PMS5003;38833;51.142;-0.974;2023-08-12T09:40:22;4;4;
44312;PMS5003;38833;51.142;-0.974;2023-08-12T09:42:56;3;3;
44312;PMS5003;38833;51.142;-0.974;2023-08-12T09:45:30;4;4;
44312;PMS5003;38833;51.142;-0.974;2023-08-12T09:48:04;4;4;
44312;PMS5003;38833;51.142;-0.974;2023-08-12T09:50:38;2;2;
44312;PMS5003;38833;51.142;-0.974;2023-08-12T09:53:11;4;4;
44312;PMS5003;38833;51.142;-0.974;2023-08-12T09:55:45;4;4;
44312;PMS5003;38833;51.142;-0.974;2023-08-12T09:58:20;5;5;
44312;PMS5003;38833;51.142;-0.974;2023-08-12T10:00:56;5;5;
44312;PMS5003;38833;51.142;-0.974;2023-08-12T10:03:29;4;4;
44312;PMS5003;38833;51.142;-0.974;2023-08-12T10:06:05;4;4;
44312;PMS5003;38833;51.142;-0.974;2023-08-12T10:08:39;4;4;
44312;PMS5003;38833;51.142;-0.974;2023-08-12T10:11:13;3;3;
44312;PMS5003;38833;51.142;-0.974;2023-08-12T10:13:47;4;4;
44312;PMS5003;38833;51.142;-0.974;2023-08-12T10:16:21;4;4;
44312;PMS5003;38833;51.142;-0.974;2023-08-12T10:18:55;4;4;
44312;PMS5003;38833;51.142;-0.974;2023-08-12T10:21:29;3;3;
44312;PMS5003;38833;51.142;-0.974;2023-08-12T10:24:04;4;4;
44312;PMS5003;38833;51.142;-0.974;2023-08-12T10:26:39;4;4;
44312;PMS5003;38833;51.142;-0.974;2023-08-12T10:29:13;4;4;
44312;PMS5003;38833;51.142;-0.974;2023-08-12T10:31:47;4;4;
44312;PMS5003;38833;51.142;-0.974;2023-08-12T10:34:21;4;4;
44312;PMS5003;38833;51.142;-0.974;2023-08-12T10:36:56;5;5;
44312;PMS5003;38833;51.142;-0.974;2023-08-12T10:39:33;3;3;
44312;PMS5003;38833;51.142;-0.974;2023-08-12T10:42:07;5;5;
44312;PMS5003;38833;51.142;-0.974;2023-08-12T10:44:49;3;3;
44312;PMS5003;38833;51.142;-0.974;2023-08-12T10:47:24;4;4;
44312;PMS5003;38833;51.142;-0.974;2023-08-12T10:49:57;4;4;
44312;PMS5003;38833;51.142;-0.974;2023-08-12T10:52:31;6;5;
44312;PMS5003;38833;51.142;-0.974;2023-08-12T10:55:19;5;5;
44312;PMS5003;38833;51.142;-0.974;2023-08-12T10:57:54;4;4;
44312;PMS5003;38833;51.142;-0.974;2023-08-12T11:00:31;2;2;
44312;PMS5003;38833;51.142;-0.974;2023-08-12T11:03:04;5;5;
44312;PMS5003;38833;51.142;-0.974;2023-08-12T11:05:38;4;3;
44312;PMS5003;38833;51.142;-0.974;2023-08-12T11:08:12;5;5;
44312;PMS5003;38833;51.142;-0.974;2023-08-12T11:10:46;4;4;
44312;PMS5003;38833;51.142;-0.974;2023-08-12T11:13:20;4;4;
44312;PMS5003;38833;51.142;-0.974;2023-08-12T11:16:05;4;4;
44312;PMS5003;38833;51.142;-0.974;2023-08-12T11:18:40;3;3;
44312;PMS5003;38833;51.142;-0.974;2023-08-12T11:21:13;5;5;
44312;PMS5003;38833;51.142;-0.974;2023-08-12T11:23:47;4;4;
44312;PMS5003;38833;51.142;-0.974;2023-08-12T11:26:23;5;5;
44312;PMS5003;38833;51.142;-0.974;2023-08-12T11:28:56;3;3;
44312;PMS5003;38833;51.142;-0.974;2023-08-12T11:31:30;5;4;
44312;PMS5003;38833;51.142;-0.974;2023-08-12T11:34:04;4;4;
44312;PMS5003;38833;51.142;-0.974;2023-08-12T11:36:38;5;5;
44312;PMS5003;38833;51.142;-0.974;2023-08-12T11:39:11;4;4;
44312;PMS5003;38833;51.142;-0.974;2023-08-12T11:41:45;4;4;
44312;PMS5003;38833;51.142;-0.974;2023-08-12T11:44:22;5;5;
44312;PMS5003;38833;51.142;-0.974;2023-08-12T11:46:56;5;5;
44312;PMS5003;38833;51.142;-0.974;2023-08-12T11:49:29;4;4;
44312;PMS5003;38833;51.142;-0.974;2023-08-12T11:52:02;5;5;
44312;PMS5003;38833;51.142;-0.974;2023-08-12T11:54:36;5;5;
44312;PMS5003;38833;51.142;-0.974;2023-08-12T11:57:10;5;5;
44312;PMS5003;38833;51.142;-0.974;2023-08-12T11:59:44;5;5;
44312;PMS5003;38833;51.142;-0.974;2023-08-12T12:02:17;4;4;
44312;PMS5003;38833;51.142;-0.974;2023-08-12T12:04:51;5;5;
44312;PMS5003;38833;51.142;-0.974;2023-08-12T12:07:25;4;4;
44312;PMS5003;38833;51.142;-0.974;2023-08-12T12:09:58;5;5;
44312;PMS5003;38833;51.142;-0.974;2023-08-12T12:12:32;5;5;
44312;PMS5003;38833;51.142;-0.974;2023-08-12T12:15:06;6;5;
44312;PMS5003;38833;51.142;-0.974;2023-08-12T12:17:40;4;4;
44312;PMS5003;38833;51.142;-0.974;2023-08-12T12:20:14;4;4;
44312;PMS5003;38833;51.142;-0.974;2023-08-12T12:22:48;4;3;
44312;PMS5003;38833;51.142;-0.974;2023-08-12T12:25:22;4;4;
44312;PMS5003;38833;51.142;-0.974;2023-08-12T12:27:55;5;5;
44312;PMS5003;38833;51.142;-0.974;2023-08-12T12:30:29;3;3;
44312;PMS5003;38833;51.142;-0.974;2023-08-12T12:33:02;4;4;
44312;PMS5003;38833;51.142;-0.974;2023-08-12T12:35:36;5;5;
44312;PMS5003;38833;51.142;-0.974;2023-08-12T12:38:09;4;4;
44312;PMS5003;38833;51.142;-0.974;2023-08-12T12:40:43;5;5;
44312;PMS5003;38833;51.142;-0.974;2023-08-12T12:43:16;5;5;
44312;PMS5003;38833;51.142;-0.974;2023-08-12T12:45:50;5;5;
44312;PMS5003;38833;51.142;-0.974;2023-08-12T12:48:23;4;4;
44312;PMS5003;38833;51.142;-0.974;2023-08-12T12:50:57;5;5;
44312;PMS5003;38833;51.142;-0.974;2023-08-12T12:53:31;4;4;
44312;PMS5003;38833;51.142;-0.974;2023-08-12T12:56:05;4;4;
44312;PMS5003;38833;51.142;-0.974;2023-08-12T12:58:39;4;4;
44312;PMS5003;38833;51.142;-0.974;2023-08-12T13:01:12;4;4;
44312;PMS5003;38833;51.142;-0.974;2023-08-12T13:03:45;3;3;
44312;PMS5003;38833;51.142;-0.974;2023-08-12T13:06:19;5;5;
44312;PMS5003;38833;51.142;-0.974;2023-08-12T13:08:52;5;4;
44312;PMS5003;38833;51.142;-0.974;2023-08-12T13:11:26;5;5;
44312;PMS5003;38833;51.142;-0.974;2023-08-12T13:14:00;5;5;
44312;PMS5003;38833;51.142;-0.974;2023-08-12T13:16:34;4;4;
44312;PMS5003;38833;51.142;-0.974;2023-08-12T13:19:07;3;3;
44312;PMS5003;38833;51.142;-0.974;2023-08-12T13:21:41;6;5;
44312;PMS5003;38833;51.142;-0.974;2023-08-12T13:24:14;5;5;
44312;PMS5003;38833;51.142;-0.974;2023-08-12T13:26:48;5;5;
44312;PMS5003;38833;51.142;-0.974;2023-08-12T13:29:21;4;4;
44312;PMS5003;38833;51.142;-0.974;2023-08-12T13:31:54;4;4;
44312;PMS5003;38833;51.142;-0.974;2023-08-12T13:34:28;5;5;
44312;PMS5003;38833;51.142;-0.974;2023-08-12T13:37:01;4;4;
44312;PMS5003;38833;51.142;-0.974;2023-08-12T13:39:34;5;5;
44312;PMS5003;38833;51.142;-0.974;2023-08-12T13:42:08;4;4;
44312;PMS5003;38833;51.142;-0.974;2023-08-12T13:44:41;5;5;
44312;PMS5003;38833;51.142;-0.974;2023-08-12T13:47:15;4;4;
44312;PMS5003;38833;51.142;-0.974;2023-08-12T13:49:48;4;4;
44312;PMS5003;38833;51.142;-0.974;2023-08-12T13:52:21;7;5;
44312;PMS5003;38833;51.142;-0.974;2023-08-12T13:54:55;4;4;
44312;PMS5003;38833;51.142;-0.974;2023-08-12T13:57:28;5;5;
44312;PMS5003;38833;51.142;-0.974;2023-08-12T14:00:02;6;5;
44312;PMS5003;38833;51.142;-0.974;2023-08-12T14:02:35;5;5;
44312;PMS5003;38833;51.142;-0.974;2023-08-12T14:05:09;4;4;
44312;PMS5003;38833;51.142;-0.974;2023-08-12T14:07:43;5;5;
44312;PMS5003;38833;51.142;-0.974;2023-08-12T14:10:17;4;4;
44312;PMS5003;38833;51.142;-0.974;2023-08-12T14:12:50;5;5;
44312;PMS5003;38833;51.142;-0.974;2023-08-12T14:15:24;4;4;
44312;PMS5003;38833;51.142;-0.974;2023-08-12T14:17:58;4;4;
44312;PMS5003;38833;51.142;-0.974;2023-08-12T14:20:31;3;3;
44312;PMS5003;38833;51.142;-0.974;2023-08-12T14:23:04;4;4;
44312;PMS5003;38833;51.142;-0.974;2023-08-12T14:25:38;5;5;
44312;PMS5003;38833;51.142;-0.974;2023-08-12T14:28:11;5;5;
44312;PMS5003;38833;51.142;-0.974;2023-08-12T14:30:45;4;4;
44312;PMS5003;38833;51.142;-0.974;2023-08-12T14:33:18;5;5;
44312;PMS5003;38833;51.142;-0.974;2023-08-12T14:35:52;5;5;
44312;PMS5003;38833;51.142;-0.974;2023-08-12T14:38:25;4;4;
44312;PMS5003;38833;51.142;-0.974;2023-08-12T14:40:58;6;4;
44312;PMS5003;38833;51.142;-0.974;2023-08-12T14:43:32;3;3;
44312;PMS5003;38833;51.142;-0.974;2023-08-12T14:46:05;5;5;
44312;PMS5003;38833;51.142;-0.974;2023-08-12T14:48:39;4;4;
44312;PMS5003;38833;51.142;-0.974;2023-08-12T14:51:12;5;5;
44312;PMS5003;38833;51.142;-0.974;2023-08-12T14:53:45;5;5;
44312;PMS5003;38833;51.142;-0.974;2023-08-12T14:56:19;3;3;
44312;PMS5003;38833;51.142;-0.974;2023-08-12T14:58:52;5;5;
44312;PMS5003;38833;51.142;-0.974;2023-08-12T15:01:26;5;5;
44312;PMS5003;38833;51.142;-0.974;2023-08-12T15:03:59;5;5;
44312;PMS5003;38833;51.142;-0.974;2023-08-12T15:06:32;5;5;
44312;PMS5003;38833;51.142;-0.974;2023-08-12T15:09:06;4;4;
44312;PMS5003;38833;51.142;-0.974;2023-08-12T15:11:39;4;4;
44312;PMS5003;38833;51.142;-0.974;2023-08-12T15:14:12;5;5;
44312;PMS5003;38833;51.142;-0.974;2023-08-12T15:16:45;3;3;
44312;PMS5003;38833;51.142;-0.974;2023-08-12T15:19:19;3;3;
44312;PMS5003;38833;51.142;-0.974;2023-08-12T15:21:52;5;5;
44312;PMS5003;38833;51.142;-0.974;2023-08-12T15:24:26;3;3;
44312;PMS5003;38833;51.142;-0.974;2023-08-12T15:26:59;4;4;
44312;PMS5003;38833;51.142;-0.974;2023-08-12T15:29:33;5;5;
44312;PMS5003;38833;51.142;-0.974;2023-08-12T15:32:06;7;5;
44312;PMS5003;38833;51.142;-0.974;2023-08-12T15:34:40;3;3;
44312;PMS5003;38833;51.142;-0.974;2023-08-12T15:37:14;4;4;
44312;PMS5003;38833;51.142;-0.974;2023-08-12T15:39:47;4;4;
44312;PMS5003;38833;51.142;-0.974;2023-08-12T15:42:21;4;4;
44312;PMS5003;38833;51.142;-0.974;2023-08-12T15:44:54;5;5;
44312;PMS5003;38833;51.142;-0.974;2023-08-12T15:47:27;5;5;
44312;PMS5003;38833;51.142;-0.974;2023-08-12T15:50:01;5;5;
44312;PMS5003;38833;51.142;-0.974;2023-08-12T15:52:34;5;5;
44312;PMS5003;38833;51.142;-0.974;2023-08-12T15:55:08;4;4;
44312;PMS5003;38833;51.142;-0.974;2023-08-12T15:57:41;4;4;
44312;PMS5003;38833;51.142;-0.974;2023-08-12T16:00:15;5;5;
44312;PMS5003;38833;51.142;-0.974;2023-08-12T16:02:48;5;5;
44312;PMS5003;38833;51.142;-0.974;2023-08-12T16:05:22;4;4;
44312;PMS5003;38833;51.142;-0.974;2023-08-12T16:07:55;5;4;
44312;PMS5003;38833;51.142;-0.974;2023-08-12T16:10:29;5;5;
44312;PMS5003;38833;51.142;-0.974;2023-08-12T16:13:02;4;4;
44312;PMS5003;38833;51.142;-0.974;2023-08-12T16:15:36;5;5;
44312;PMS5003;38833;51.142;-0.974;2023-08-12T16:18:09;4;4;
44312;PMS5003;38833;51.142;-0.974;2023-08-12T16:20:43;4;4;
44312;PMS5003;38833;51.142;-0.974;2023-08-12T16:23:16;4;4;
44312;PMS5003;38833;51.142;-0.974;2023-08-12T16:25:50;5;5;
44312;PMS5003;38833;51.142;-0.974;2023-08-12T16:28:23;5;5;
44312;PMS5003;38833;51.142;-0.974;2023-08-12T16:30:56;4;4;
44312;PMS5003;38833;51.142;-0.974;2023-08-12T16:33:30;4;4;
44312;PMS5003;38833;51.142;-0.974;2023-08-12T16:36:03;4;4;
44312;PMS5003;38833;51.142;-0.974;2023-08-12T16:38:37;4;4;
44312;PMS5003;38833;51.142;-0.974;2023-08-12T16:41:10;5;5;
44312;PMS5003;38833;51.142;-0.974;2023-08-12T16:43:44;5;5;
44312;PMS5003;38833;51.142;-0.974;2023-08-12T16:46:18;4;4;
44312;PMS5003;38833;51.142;-0.974;2023-08-12T16:48:51;5;5;
44312;PMS5003;38833;51.142;-0.974;2023-08-12T16:51:25;6;5;
44312;PMS5003;38833;51.142;-0.974;2023-08-12T16:53:59;5;5;
44312;PMS5003;38833;51.142;-0.974;2023-08-12T16:56:33;5;5;
44312;PMS5003;38833;51.142;-0.974;2023-08-12T16:59:06;4;4;
44312;PMS5003;38833;51.142;-0.974;2023-08-12T17:01:39;4;4;
44312;PMS5003;38833;51.142;-0.974;2023-08-12T17:04:13;5;5;
44312;PMS5003;38833;51.142;-0.974;2023-08-12T17:06:46;5;5;
44312;PMS5003;38833;51.142;-0.974;2023-08-12T17:09:20;5;5;
44312;PMS5003;38833;51.142;-0.974;2023-08-12T17:11:53;5;5;
44312;PMS5003;38833;51.142;-0.974;2023-08-12T17:14:27;3;3;
44312;PMS5003;38833;51.142;-0.974;2023-08-12T17:17:01;4;4;